createdAt,value
2019-05-07T00:01:16.359Z,9.80
2019-05-07T00:03:46.631Z,9.80
2019-05-07T00:06:17.427Z,9.80
2019-05-07T00:08:48.373Z,9.70
2019-05-07T00:11:19.086Z,9.70
2019-05-07T00:13:52.247Z,9.70
2019-05-07T00:16:24.275Z,9.70
2019-05-07T00:18:55.433Z,9.70
2019-05-07T00:21:25.695Z,9.70
2019-05-07T00:23:56.692Z,9.60
2019-05-07T00:26:26.409Z,9.50
2019-05-07T00:29:51.935Z,9.40
2019-05-07T00:32:42.282Z,9.40
2019-05-07T00:35:14.819Z,9.30
2019-05-07T00:37:53.839Z,9.30
2019-05-07T00:40:48.859Z,9.30
2019-05-07T00:43:23.079Z,9.30
2019-05-07T00:45:57.234Z,9.30
2019-05-07T00:48:28.378Z,9.40
2019-05-07T00:51:18.070Z,9.40
2019-05-07T00:53:48.970Z,9.40
2019-05-07T00:56:19.637Z,9.40
2019-05-07T00:58:52.788Z,9.40
2019-05-07T01:01:24.667Z,9.40
2019-05-07T01:03:55.603Z,9.30
2019-05-07T01:06:26.805Z,9.30
2019-05-07T01:08:57.694Z,9.30
2019-05-07T01:11:28.629Z,9.20
2019-05-07T01:13:59.112Z,9.20
2019-05-07T01:16:29.927Z,9.20
2019-05-07T01:19:01.909Z,9.20
2019-05-07T01:21:33.002Z,9.30
2019-05-07T01:24:03.763Z,9.30
2019-05-07T01:26:35.325Z,9.30
2019-05-07T01:29:05.440Z,9.20
2019-05-07T01:31:40.278Z,9.20
2019-05-07T01:34:42.936Z,9.20
2019-05-07T01:37:14.533Z,9.10
2019-05-07T01:39:45.260Z,9.10
2019-05-07T01:42:17.791Z,9.10
2019-05-07T01:44:48.990Z,9.00
2019-05-07T01:47:19.878Z,9.00
2019-05-07T01:49:52.766Z,9.00
2019-05-07T01:52:23.043Z,8.90
2019-05-07T01:54:53.796Z,8.90
2019-05-07T01:57:24.329Z,8.90
2019-05-07T01:59:55.058Z,8.90
2019-05-07T02:02:32.306Z,8.90
2019-05-07T02:05:19.064Z,8.90
2019-05-07T02:07:54.625Z,8.90
2019-05-07T02:10:42.652Z,8.90
2019-05-07T02:13:12.791Z,8.90
2019-05-07T02:15:57.388Z,8.80
2019-05-07T02:18:16.000Z,8.80
2019-05-07T02:20:46.840Z,8.80
2019-05-07T02:23:17.333Z,8.80
2019-05-07T02:25:48.524Z,8.80
2019-05-07T02:28:19.252Z,8.80
2019-05-07T02:30:53.309Z,8.80
2019-05-07T02:33:22.967Z,8.80
2019-05-07T02:35:56.395Z,8.80
2019-05-07T02:38:39.304Z,8.80
2019-05-07T02:41:18.153Z,8.80
2019-05-07T02:43:49.092Z,8.80
2019-05-07T02:46:54.224Z,8.80
2019-05-07T02:49:44.048Z,8.80
2019-05-07T02:52:33.606Z,8.80
2019-05-07T02:55:10.282Z,8.90
2019-05-07T02:57:43.458Z,8.90
2019-05-07T03:00:14.648Z,8.80
2019-05-07T03:02:45.173Z,8.80
2019-05-07T03:05:15.680Z,8.80
2019-05-07T03:07:45.965Z,8.80
2019-05-07T03:10:17.124Z,8.80
2019-05-07T03:12:48.106Z,8.80
2019-05-07T03:15:19.055Z,8.80
2019-05-07T03:17:49.937Z,8.80
2019-05-07T03:20:24.358Z,8.80
2019-05-07T03:22:57.406Z,8.80
2019-05-07T03:25:33.954Z,8.90
2019-05-07T03:28:05.183Z,8.80
2019-05-07T03:30:57.425Z,8.80
2019-05-07T03:33:46.553Z,8.80
2019-05-07T03:36:16.699Z,8.80
2019-05-07T03:38:47.102Z,8.70
2019-05-07T03:41:19.073Z,8.70
2019-05-07T03:43:52.558Z,8.60
2019-05-07T03:46:23.441Z,8.60
2019-05-07T03:48:53.687Z,8.60
2019-05-07T03:51:24.074Z,8.60
2019-05-07T03:53:54.312Z,8.60
2019-05-07T03:56:25.266Z,8.60
2019-05-07T03:58:56.080Z,8.60
2019-05-07T04:01:26.629Z,8.60
2019-05-07T04:03:57.356Z,8.50
2019-05-07T04:06:27.394Z,8.60
2019-05-07T04:08:57.894Z,8.60
2019-05-07T04:11:28.479Z,8.60
2019-05-07T04:14:02.337Z,8.60
2019-05-07T04:16:33.222Z,8.70
2019-05-07T04:19:04.854Z,8.70
2019-05-07T04:21:35.384Z,8.70
2019-05-07T04:24:27.221Z,8.80
2019-05-07T04:27:07.181Z,8.80
2019-05-07T04:29:38.531Z,8.80
2019-05-07T04:32:10.150Z,8.80
2019-05-07T04:35:03.854Z,8.80
2019-05-07T04:37:35.327Z,8.80
2019-05-07T04:40:06.272Z,8.90
2019-05-07T04:42:37.389Z,8.90
2019-05-07T04:45:09.175Z,8.90
2019-05-07T04:47:46.351Z,9.00
2019-05-07T04:50:32.901Z,9.00
2019-05-07T04:52:47.532Z,9.10
2019-05-07T04:55:18.894Z,9.10
2019-05-07T04:57:49.199Z,9.10
2019-05-07T05:00:22.695Z,9.20
2019-05-07T05:03:03.799Z,9.20
2019-05-07T05:05:34.951Z,9.20
2019-05-07T05:08:06.098Z,9.20
2019-05-07T05:10:37.033Z,9.20
2019-05-07T05:13:07.421Z,9.30
2019-05-07T05:15:38.450Z,9.30
2019-05-07T05:18:09.652Z,9.30
2019-05-07T05:20:51.802Z,9.30
2019-05-07T05:23:32.330Z,9.30
2019-05-07T05:26:03.382Z,9.30
2019-05-07T05:28:33.501Z,9.30
2019-05-07T05:31:05.557Z,9.40
2019-05-07T05:33:36.410Z,9.40
2019-05-07T05:36:07.762Z,9.40
2019-05-07T05:38:38.297Z,9.50
2019-05-07T05:41:09.448Z,9.50
2019-05-07T05:44:05.586Z,9.60
2019-05-07T05:46:36.528Z,9.70
2019-05-07T05:49:07.464Z,9.80
2019-05-07T05:52:12.493Z,9.90
2019-05-07T05:54:48.267Z,9.90
2019-05-07T05:57:28.382Z,10.00
2019-05-07T06:00:09.408Z,10.10
2019-05-07T06:03:02.566Z,10.00
2019-05-07T06:05:42.623Z,10.10
2019-05-07T06:08:20.539Z,10.10
2019-05-07T06:11:04.585Z,10.10
2019-05-07T06:13:41.935Z,10.20
2019-05-07T06:16:19.149Z,10.30
2019-05-07T06:19:08.616Z,10.40
2019-05-07T06:22:16.467Z,10.50
2019-05-07T06:24:58.565Z,10.60
2019-05-07T06:27:28.891Z,10.60
2019-05-07T06:30:04.327Z,10.70
2019-05-07T06:32:33.177Z,10.80
2019-05-07T06:35:12.149Z,10.90
2019-05-07T06:37:42.881Z,11.00
2019-05-07T06:40:32.113Z,11.00
2019-05-07T06:43:12.507Z,11.10
2019-05-07T06:45:47.433Z,11.20
2019-05-07T06:48:17.554Z,11.40
2019-05-07T06:50:57.929Z,11.50
2019-05-07T06:53:30.137Z,11.60
2019-05-07T06:56:02.877Z,11.70
2019-05-07T06:58:52.730Z,11.90
2019-05-07T07:01:59.228Z,12.00
2019-05-07T07:04:35.696Z,12.20
2019-05-07T07:07:32.374Z,12.20
2019-05-07T07:10:04.071Z,12.30
2019-05-07T07:12:34.813Z,12.50
2019-05-07T07:15:06.570Z,12.70
2019-05-07T07:17:38.746Z,12.70
2019-05-07T07:20:12.530Z,12.80
2019-05-07T07:22:43.082Z,12.90
2019-05-07T07:25:13.407Z,12.90
2019-05-07T07:27:44.138Z,13.00
2019-05-07T07:30:32.927Z,13.10
2019-05-07T07:33:06.107Z,13.20
2019-05-07T07:35:36.583Z,13.20
2019-05-07T07:38:32.881Z,13.20
2019-05-07T07:41:15.695Z,13.30
2019-05-07T07:43:47.372Z,13.40
2019-05-07T07:46:18.099Z,13.50
2019-05-07T07:49:03.278Z,13.60
2019-05-07T07:51:36.856Z,13.70
2019-05-07T07:53:55.025Z,13.80
2019-05-07T07:56:48.809Z,13.70
2019-05-07T07:59:35.623Z,13.80
2019-05-07T08:02:25.409Z,13.80
2019-05-07T08:04:55.905Z,13.80
2019-05-07T08:07:26.760Z,13.80
2019-05-07T08:09:57.033Z,14.00
2019-05-07T08:12:27.976Z,14.30
2019-05-07T08:15:13.570Z,14.50
2019-05-07T08:17:32.575Z,14.60
2019-05-07T08:20:02.987Z,14.60
2019-05-07T08:22:34.309Z,14.60
2019-05-07T08:25:06.570Z,14.60
2019-05-07T08:27:37.301Z,14.60
2019-05-07T08:30:08.965Z,14.70
2019-05-07T08:32:52.924Z,14.80
2019-05-07T08:35:52.200Z,14.90
2019-05-07T08:38:23.047Z,15.00
2019-05-07T08:40:53.797Z,15.00
2019-05-07T08:43:24.943Z,15.10
2019-05-07T08:46:13.291Z,15.30
2019-05-07T08:48:47.929Z,15.30
2019-05-07T08:51:18.873Z,15.40
2019-05-07T08:54:05.385Z,15.50
2019-05-07T08:56:39.587Z,15.60
2019-05-07T08:59:12.401Z,15.70
2019-05-07T09:01:43.738Z,15.70
2019-05-07T09:04:14.473Z,15.80
2019-05-07T09:06:46.439Z,15.90
2019-05-07T09:09:18.404Z,16.10
2019-05-07T09:11:51.763Z,16.40
2019-05-07T09:14:25.786Z,16.60
2019-05-07T09:16:55.133Z,16.80
2019-05-07T09:19:26.277Z,16.90
2019-05-07T09:21:57.415Z,16.90
2019-05-07T09:24:28.573Z,17.00
2019-05-07T09:27:08.311Z,17.10
2019-05-07T09:30:02.641Z,17.20
2019-05-07T09:32:52.202Z,17.90
2019-05-07T09:35:29.122Z,18.70
2019-05-07T09:37:59.964Z,19.30
2019-05-07T09:40:32.048Z,19.70
2019-05-07T09:43:03.344Z,20.10
2019-05-07T09:45:34.494Z,20.60
2019-05-07T09:48:06.649Z,20.90
2019-05-07T09:50:37.061Z,20.60
2019-05-07T09:53:07.924Z,20.90
2019-05-07T09:55:39.081Z,20.80
2019-05-07T09:58:12.347Z,20.40
2019-05-07T10:00:43.149Z,19.90
2019-05-07T10:03:14.163Z,19.40
2019-05-07T10:05:45.112Z,19.00
2019-05-07T10:08:16.455Z,19.30
2019-05-07T10:10:50.636Z,19.60
2019-05-07T10:13:45.371Z,19.50
2019-05-07T10:16:22.878Z,20.40
2019-05-07T10:18:53.677Z,21.20
2019-05-07T10:21:25.167Z,21.00
2019-05-07T10:23:56.527Z,20.80
2019-05-07T10:26:27.467Z,21.10
2019-05-07T10:28:58.231Z,22.20
2019-05-07T10:31:29.159Z,23.00
2019-05-07T10:33:59.679Z,22.70
2019-05-07T10:36:32.033Z,22.20
2019-05-07T10:39:02.855Z,21.50
2019-05-07T10:41:35.309Z,20.80
2019-05-07T10:44:07.954Z,20.20
2019-05-07T10:46:57.185Z,19.70
2019-05-07T10:49:32.122Z,19.40
2019-05-07T10:52:02.758Z,19.00
2019-05-07T10:54:33.647Z,18.70
2019-05-07T10:57:04.036Z,18.60
2019-05-07T10:59:35.123Z,18.70
2019-05-07T11:02:21.960Z,19.60
2019-05-07T11:04:53.254Z,20.00
2019-05-07T11:07:24.139Z,20.00
2019-05-07T11:09:54.284Z,19.70
2019-05-07T11:12:24.527Z,19.30
2019-05-07T11:14:55.947Z,18.70
2019-05-07T11:17:39.045Z,18.10
2019-05-07T11:20:12.195Z,17.80
2019-05-07T11:22:42.977Z,17.30
2019-05-07T11:25:14.281Z,17.20
2019-05-07T11:27:44.991Z,17.40
2019-05-07T11:30:16.964Z,17.80
2019-05-07T11:32:47.743Z,18.10
2019-05-07T11:35:18.052Z,18.30
2019-05-07T11:37:48.329Z,18.60
2019-05-07T11:40:20.273Z,18.70
2019-05-07T11:43:22.104Z,18.60
2019-05-07T11:46:13.083Z,18.30
2019-05-07T11:48:52.538Z,18.00
2019-05-07T11:51:42.583Z,17.50
2019-05-07T11:54:15.139Z,17.10
2019-05-07T11:56:46.062Z,16.80
2019-05-07T11:59:17.202Z,16.70
2019-05-07T12:01:52.755Z,16.70
2019-05-07T12:04:23.602Z,16.80
2019-05-07T12:06:54.082Z,16.90
2019-05-07T12:09:24.388Z,17.10
2019-05-07T12:11:54.778Z,17.50
2019-05-07T12:14:31.293Z,18.30
2019-05-07T12:16:58.116Z,20.30
2019-05-07T12:19:28.237Z,21.50
2019-05-07T12:21:59.732Z,21.50
2019-05-07T12:24:32.813Z,21.00
2019-05-07T12:27:03.326Z,20.20
2019-05-07T12:29:34.868Z,19.50
2019-05-07T12:32:29.870Z,18.80
2019-05-07T12:35:09.697Z,18.50
2019-05-07T12:37:42.397Z,18.40
2019-05-07T12:40:13.464Z,18.30
2019-05-07T12:42:45.695Z,18.40
2019-05-07T12:45:17.591Z,18.50
2019-05-07T12:47:48.556Z,18.80
2019-05-07T12:50:18.679Z,19.30
2019-05-07T12:52:54.416Z,19.70
2019-05-07T12:55:47.392Z,20.00
2019-05-07T12:58:18.295Z,19.90
2019-05-07T13:00:54.732Z,19.50
2019-05-07T13:03:35.791Z,19.20
2019-05-07T13:06:06.944Z,18.80
2019-05-07T13:08:37.551Z,18.50
2019-05-07T13:11:08.421Z,18.70
2019-05-07T13:13:39.302Z,19.00
2019-05-07T13:16:09.895Z,19.10
2019-05-07T13:18:42.288Z,19.10
2019-05-07T13:21:12.813Z,19.90
2019-05-07T13:23:43.401Z,20.90
2019-05-07T13:26:13.603Z,22.50
2019-05-07T13:28:44.391Z,24.00
2019-05-07T13:31:17.025Z,25.40
2019-05-07T13:33:49.157Z,26.20
2019-05-07T13:36:22.069Z,25.90
2019-05-07T13:39:12.330Z,25.10
2019-05-07T13:42:02.539Z,24.80
2019-05-07T13:44:45.564Z,26.00
2019-05-07T13:47:31.255Z,26.20
2019-05-07T13:50:02.857Z,25.20
2019-05-07T13:52:35.599Z,24.00
2019-05-07T13:55:08.593Z,22.90
2019-05-07T13:57:39.136Z,22.70
2019-05-07T14:00:13.611Z,22.40
2019-05-07T14:02:45.103Z,21.90
2019-05-07T14:05:16.058Z,21.30
2019-05-07T14:07:48.221Z,21.00
2019-05-07T14:10:18.985Z,20.90
2019-05-07T14:12:52.173Z,21.00
2019-05-07T14:15:23.715Z,21.90
2019-05-07T14:17:55.011Z,22.80
2019-05-07T14:20:27.031Z,24.00
2019-05-07T14:22:57.895Z,24.80
2019-05-07T14:25:29.133Z,25.40
2019-05-07T14:28:02.125Z,25.60
2019-05-07T14:30:32.997Z,25.70
2019-05-07T14:33:16.498Z,25.90
2019-05-07T14:35:59.128Z,25.90
2019-05-07T14:38:42.677Z,25.90
2019-05-07T14:41:13.694Z,26.00
2019-05-07T14:43:52.213Z,25.10
2019-05-07T14:46:22.360Z,24.20
2019-05-07T14:48:53.280Z,23.60
2019-05-07T14:51:23.824Z,23.90
2019-05-07T14:53:54.568Z,23.60
2019-05-07T14:56:24.712Z,22.80
2019-05-07T14:58:55.422Z,22.10
2019-05-07T15:01:27.542Z,21.50
2019-05-07T15:03:58.947Z,21.00
2019-05-07T15:06:29.346Z,20.80
2019-05-07T15:09:00.830Z,21.10
2019-05-07T15:11:34.024Z,21.70
2019-05-07T15:14:05.183Z,22.10
2019-05-07T15:16:35.722Z,21.60
2019-05-07T15:19:07.466Z,21.10
2019-05-07T15:21:38.617Z,20.70
2019-05-07T15:24:08.746Z,20.40
2019-05-07T15:26:41.967Z,20.00
2019-05-07T15:29:14.324Z,19.70
2019-05-07T15:32:10.211Z,19.70
2019-05-07T15:34:42.171Z,19.70
2019-05-07T15:37:12.898Z,19.70
2019-05-07T15:39:43.295Z,19.60
2019-05-07T15:42:14.019Z,19.50
2019-05-07T15:44:44.616Z,19.30
2019-05-07T15:47:22.324Z,19.00
2019-05-07T15:49:52.877Z,18.80
2019-05-07T15:52:41.899Z,18.90
2019-05-07T15:55:14.138Z,18.90
2019-05-07T15:57:44.667Z,19.00
2019-05-07T16:00:19.097Z,19.20
2019-05-07T16:02:53.751Z,19.20
2019-05-07T16:05:25.280Z,19.20
2019-05-07T16:07:56.021Z,19.10
2019-05-07T16:10:26.547Z,19.10
2019-05-07T16:12:57.499Z,19.00
2019-05-07T16:15:28.648Z,18.90
2019-05-07T16:18:02.985Z,18.80
2019-05-07T16:20:34.423Z,18.80
2019-05-07T16:23:14.802Z,18.80
2019-05-07T16:25:37.918Z,18.70
2019-05-07T16:28:09.093Z,18.60
2019-05-07T16:30:39.834Z,18.60
2019-05-07T16:33:12.620Z,18.70
2019-05-07T16:35:43.779Z,18.60
2019-05-07T16:38:17.711Z,18.60
2019-05-07T16:40:47.928Z,18.60
2019-05-07T16:43:19.055Z,18.70
2019-05-07T16:45:51.775Z,18.60
2019-05-07T16:48:23.251Z,18.50
2019-05-07T16:50:54.566Z,18.40
2019-05-07T16:53:29.355Z,18.30
2019-05-07T16:55:57.466Z,18.30
2019-05-07T16:58:38.346Z,18.30
2019-05-07T17:01:10.577Z,18.20
2019-05-07T17:03:49.142Z,18.10
2019-05-07T17:06:19.260Z,18.10
2019-05-07T17:09:18.022Z,18.10
2019-05-07T17:11:48.514Z,18.00
2019-05-07T17:14:19.938Z,17.90
2019-05-07T17:16:51.669Z,17.80
2019-05-07T17:19:22.555Z,17.60
2019-05-07T17:21:53.514Z,17.30
2019-05-07T17:24:24.090Z,17.10
2019-05-07T17:26:55.264Z,16.90
2019-05-07T17:29:26.625Z,16.80
2019-05-07T17:31:57.362Z,16.70
2019-05-07T17:34:28.306Z,16.70
2019-05-07T17:36:59.046Z,16.70
2019-05-07T17:39:31.954Z,16.70
2019-05-07T17:42:02.645Z,16.70
2019-05-07T17:44:34.942Z,16.50
2019-05-07T17:47:05.397Z,16.40
2019-05-07T17:49:36.612Z,16.30
2019-05-07T17:52:08.627Z,16.10
2019-05-07T17:54:39.329Z,16.00
2019-05-07T17:57:10.080Z,15.80
2019-05-07T17:59:42.177Z,15.70
2019-05-07T18:02:36.334Z,15.50
2019-05-07T18:05:07.829Z,15.40
2019-05-07T18:07:38.528Z,15.30
2019-05-07T18:10:12.444Z,15.20
2019-05-07T18:12:42.772Z,15.00
2019-05-07T18:15:15.347Z,14.90
2019-05-07T18:17:50.550Z,14.80
2019-05-07T18:20:22.211Z,14.80
2019-05-07T18:22:54.114Z,14.70
2019-05-07T18:25:24.446Z,14.70
2019-05-07T18:27:54.396Z,14.60
2019-05-07T18:30:25.635Z,14.50
2019-05-07T18:33:18.374Z,14.50
2019-05-07T18:35:52.396Z,14.40
2019-05-07T18:38:22.523Z,14.30
2019-05-07T18:40:53.040Z,14.30
2019-05-07T18:43:23.502Z,14.10
2019-05-07T18:45:54.410Z,14.10
2019-05-07T18:48:25.261Z,14.00
2019-05-07T18:50:55.520Z,13.90
2019-05-07T18:53:25.710Z,13.90
2019-05-07T18:55:56.602Z,13.90
2019-05-07T18:58:27.808Z,13.80
2019-05-07T19:01:02.654Z,13.80
2019-05-07T19:03:33.579Z,13.80
2019-05-07T19:06:03.939Z,13.80
2019-05-07T19:08:35.882Z,13.70
2019-05-07T19:11:06.829Z,13.70
2019-05-07T19:13:37.357Z,13.70
2019-05-07T19:16:08.711Z,13.60
2019-05-07T19:18:39.655Z,13.60
2019-05-07T19:21:10.393Z,13.50
2019-05-07T19:23:42.340Z,13.50
2019-05-07T19:26:13.511Z,13.50
2019-05-07T19:28:46.011Z,13.50
2019-05-07T19:31:16.985Z,13.50
2019-05-07T19:33:47.739Z,13.50
2019-05-07T19:36:18.305Z,13.40
2019-05-07T19:38:49.180Z,13.40
2019-05-07T19:41:19.323Z,13.40
2019-05-07T19:43:49.434Z,13.40
2019-05-07T19:46:22.831Z,13.30
2019-05-07T19:48:53.169Z,13.30
2019-05-07T19:51:23.345Z,13.30
2019-05-07T19:53:54.088Z,13.30
2019-05-07T19:56:25.867Z,13.20
2019-05-07T19:58:56.725Z,13.20
2019-05-07T20:01:32.597Z,13.20
2019-05-07T20:04:02.984Z,13.20
2019-05-07T20:06:33.721Z,13.20
2019-05-07T20:09:12.030Z,13.20
2019-05-07T20:11:44.822Z,13.10
2019-05-07T20:14:16.175Z,13.10
2019-05-07T20:16:47.129Z,13.10
2019-05-07T20:19:17.997Z,13.10
2019-05-07T20:21:48.541Z,13.00
2019-05-07T20:24:19.083Z,13.00
2019-05-07T20:26:52.441Z,13.00
2019-05-07T20:29:23.027Z,12.90
2019-05-07T20:31:54.617Z,12.90
2019-05-07T20:34:25.318Z,12.80
2019-05-07T20:36:58.553Z,12.80
2019-05-07T20:39:28.680Z,12.70
2019-05-07T20:42:00.032Z,12.70
2019-05-07T20:44:32.358Z,12.70
2019-05-07T20:47:03.144Z,12.60
2019-05-07T20:49:34.018Z,12.60
2019-05-07T20:52:04.700Z,12.50
2019-05-07T20:54:42.008Z,12.50
2019-05-07T20:57:22.581Z,12.50
2019-05-07T20:59:53.514Z,12.40
2019-05-07T21:02:24.162Z,12.40
2019-05-07T21:04:54.905Z,12.30
2019-05-07T21:07:26.254Z,12.20
2019-05-07T21:09:56.723Z,12.10
2019-05-07T21:12:27.462Z,12.10
2019-05-07T21:14:58.262Z,12.00
2019-05-07T21:17:29.008Z,12.00
2019-05-07T21:19:59.742Z,12.00
2019-05-07T21:22:31.993Z,11.90
2019-05-07T21:25:04.024Z,11.90
2019-05-07T21:27:35.030Z,11.90
2019-05-07T21:30:06.308Z,11.80
2019-05-07T21:32:37.536Z,11.80
2019-05-07T21:35:07.646Z,11.80
2019-05-07T21:37:41.834Z,11.80
2019-05-07T21:40:13.082Z,11.80
2019-05-07T21:42:43.797Z,11.70
2019-05-07T21:45:16.155Z,11.70
2019-05-07T21:47:46.851Z,11.70
2019-05-07T21:50:17.345Z,11.70
2019-05-07T21:52:54.093Z,11.60
2019-05-07T21:55:36.708Z,11.60
2019-05-07T21:58:25.264Z,11.60
2019-05-07T22:01:24.744Z,11.50
2019-05-07T22:03:57.156Z,11.50
2019-05-07T22:06:28.402Z,11.50
2019-05-07T22:08:58.791Z,11.50
2019-05-07T22:11:32.134Z,11.50
2019-05-07T22:14:02.870Z,11.50
2019-05-07T22:16:33.742Z,11.50
2019-05-07T22:19:04.622Z,11.60
2019-05-07T22:21:35.912Z,11.60
2019-05-07T22:24:07.261Z,11.60
2019-05-07T22:26:38.202Z,11.60
2019-05-07T22:29:09.149Z,11.60
2019-05-07T22:31:58.937Z,11.60
2019-05-07T22:34:34.748Z,11.50
2019-05-07T22:37:06.754Z,11.40
2019-05-07T22:39:42.065Z,11.40
2019-05-07T22:42:29.738Z,11.30
2019-05-07T22:45:02.619Z,11.20
2019-05-07T22:47:33.677Z,11.20
2019-05-07T22:50:04.956Z,11.10
2019-05-07T22:52:35.576Z,11.10
2019-05-07T22:55:06.299Z,11.00
2019-05-07T22:57:45.391Z,10.90
2019-05-07T23:00:25.413Z,10.90
2019-05-07T23:02:55.852Z,10.90
2019-05-07T23:05:27.067Z,10.90
2019-05-07T23:07:58.015Z,10.90
2019-05-07T23:10:28.552Z,10.80
2019-05-07T23:12:59.417Z,10.80
2019-05-07T23:15:32.023Z,10.80
2019-05-07T23:18:04.371Z,10.80
2019-05-07T23:20:34.775Z,10.80
2019-05-07T23:23:05.933Z,10.80
2019-05-07T23:25:36.869Z,10.70
2019-05-07T23:28:07.743Z,10.70
2019-05-07T23:30:38.757Z,10.70
2019-05-07T23:33:11.966Z,10.60
2019-05-07T23:35:42.687Z,10.60
2019-05-07T23:38:15.850Z,10.50
2019-05-07T23:40:57.885Z,10.50
2019-05-07T23:43:30.229Z,10.40
2019-05-07T23:46:02.207Z,10.40
2019-05-07T23:48:32.969Z,10.30
2019-05-07T23:51:04.321Z,10.30
2019-05-07T23:53:35.123Z,10.30
2019-05-07T23:56:05.830Z,10.30
2019-05-07T23:58:36.124Z,10.30
